Estación de Morza

Ultimos registro cada 15 minutos 68
Estación Fecha / Hora Temperatura Humedad Lluvia Velocidad Dirección Radiación Presion
68 Morza 31-08-2026 16:45 20,4 49 0 0,4 271 220 1021,2
67 Morza 31-08-2026 16:30 20,7 50 0 1,8 318 262 1021,3
66 Morza 31-08-2026 16:15 20,4 48 0 0,4 288 301 1021,4
65 Morza 31-08-2026 16:00 20,5 50 0 0,9 307 341 1021,2
64 Morza 31-08-2026 15:45 20,7 55 0 0,9 295 378 1021,3
63 Morza 31-08-2026 15:30 20 50 0 0,4 351 411 1021,6
62 Morza 31-08-2026 15:15 19,9 52 0 0,4 182 446 1021,6
61 Morza 31-08-2026 15:00 20,4 54 0 2,7 329 476 1021,7
60 Morza 31-08-2026 14:45 20,2 56 0 0,4 42 506 1022
59 Morza 31-08-2026 14:30 19,2 53 0 0,9 275 531 1022
58 Morza 31-08-2026 14:15 19,2 54 0 1,8 321 552 1022,2
57 Morza 31-08-2026 14:00 19,2 57 0 0,4 359 585 1022,4
56 Morza 31-08-2026 13:45 18,7 63 0 1,3 44 601 1022,5
55 Morza 31-08-2026 13:30 18,4 62 0 1,8 2 603 1022,6
54 Morza 31-08-2026 13:15 18,3 57 0 0,9 96 613 1022,9
53 Morza 31-08-2026 13:00 18,1 59 0 1,8 101 671 1023
52 Morza 31-08-2026 12:45 17,7 58 0 0,4 302 213 1023,5
51 Morza 31-08-2026 12:30 17,9 60 0 0,9 318 573 1023,5
50 Morza 31-08-2026 12:15 17,8 66 0 0,9 56 698 1023,7
49 Morza 31-08-2026 12:00 16,6 65 0 1,8 325 348 1023,8
48 Morza 31-08-2026 11:45 16,6 64 0 0 33 283 1023,9
47 Morza 31-08-2026 11:30 16,7 63 0 0,9 291 403 1024
46 Morza 31-08-2026 11:15 16,4 64 0 0,4 284 547 1024
45 Morza 31-08-2026 11:00 16,2 61 0 0,4 345 522 1023,9
44 Morza 31-08-2026 10:45 16 63 0 0 336 529 1024
43 Morza 31-08-2026 10:30 15,6 67 0 0 339 497 1023,9
42 Morza 31-08-2026 10:15 14,8 78 0 0,9 324 464 1023,8
41 Morza 31-08-2026 10:00 14,2 78 0 0 360 422 1023,9
40 Morza 31-08-2026 09:45 13,4 82 0 0,4 20 429 1023,8
39 Morza 31-08-2026 09:30 12,2 83 0 0,4 19 257 1023,7
38 Morza 31-08-2026 09:15 10,8 88 0 0 76 227 1023,7
37 Morza 31-08-2026 09:00 9,8 92 0 0 76 153 1023,4
36 Morza 31-08-2026 08:45 8,9 94 0 0 76 120 1023,2
35 Morza 31-08-2026 08:30 7,9 94 0 0,4 155 95 1023,2
34 Morza 31-08-2026 08:15 6,9 95 0 0,4 213 65 1022,6
33 Morza 31-08-2026 08:00 5,9 95 0 1,3 205 51 1022,4
32 Morza 31-08-2026 07:45 5,7 93 0 0 81 16 1022
31 Morza 31-08-2026 07:30 5,7 94 0 0 80 11 1022
30 Morza 31-08-2026 07:15 5,7 94 0 0 80 7 1021,7
29 Morza 31-08-2026 07:00 5,7 94 0 0 80 0 1021,4
28 Morza 31-08-2026 06:45 5,7 94 0 0 80 0 1021,2
27 Morza 31-08-2026 06:30 5,6 93 0 0 177 0 1021
26 Morza 31-08-2026 06:15 5,7 92 0 0 137 0 1020,8
25 Morza 31-08-2026 06:00 5,9 92 0 0 137 0 1020,8
24 Morza 31-08-2026 05:45 6,2 92 0 0 137 0 1020,7
23 Morza 31-08-2026 05:30 6,6 91 0 0 137 0 1020,4
22 Morza 31-08-2026 05:15 7 92 0 0 135 0 1020,5
21 Morza 31-08-2026 05:00 7,2 92 0 0 70 0 1020,4
20 Morza 31-08-2026 04:45 7,4 92 0 0 70 0 1020,3
19 Morza 31-08-2026 04:30 7,7 92 0 0 70 0 1020,3
18 Morza 31-08-2026 04:15 7,8 90 0 0 70 0 1020,6
17 Morza 31-08-2026 04:00 8,1 90 0 0 70 0 1020,4
16 Morza 31-08-2026 03:45 8,3 90 0 0 78 0 1020,5
15 Morza 31-08-2026 03:30 8,5 90 0 0 85 0 1020,4
14 Morza 31-08-2026 03:15 8,7 89 0 0 85 0 1020,4
13 Morza 31-08-2026 03:00 9,1 88 0 0 85 0 1020,1
12 Morza 31-08-2026 02:45 9,5 88 0 0 85 0 1020,1
11 Morza 31-08-2026 02:30 9,6 89 0 0 85 0 1020,2
10 Morza 31-08-2026 02:15 9,6 90 0 0 85 0 1020,2
9 Morza 31-08-2026 02:00 9,3 90 0 0 318 0 1020,1
8 Morza 31-08-2026 01:45 9,2 89 0 0 318 0 1020,1
7 Morza 31-08-2026 01:30 9,1 89 0 0 318 0 1020
6 Morza 31-08-2026 01:15 9,2 89 0 0 318 0 1019,9
5 Morza 31-08-2026 01:00 9,2 88 0 0 318 0 1019,8
4 Morza 31-08-2026 00:45 9,3 88 0 0 318 0 1019,6
3 Morza 31-08-2026 00:30 9,4 87 0 0 318 0 1019,4
2 Morza 31-08-2026 00:15 9,6 85 0 0 318 0 1019,5
1 Morza 31-08-2026 00:00 9,8 84 0 0 318 0 1019,3